Venice, FL

6:05 PM EST on March 03, 2015 (GMT -0500)
South Venice | Change Station
CLOSE
Current Station
Personal Weather Station
Location: Venice, FL
Elevation: 26 ft
Nearby Weather Stations

Elev 26 ft 27.05 °N, 82.41 °W | Updated 7 minutes ago

Mostly Cloudy
Mostly Cloudy
77.0 °F
Feels Like 79 °F
N
2.7
Wind Variable Wind from West

Today
High -- | Low -- °F
--% Chance of Precip.
Yesterday
High -- | Low -- °F
Precip. -- in
6:51 AM 6:31 PM
Waxing Gibbous, 97% visible
Pressure 30.12 in
Visibility 10.0 miles
Clouds Scattered Clouds 5000 ft
Mostly Cloudy 6500 ft
Heat Index 79 °F
Dew Point 62 °F
Humidity 61%
Rainfall 0.61 in
Snow Depth Not available.
UV 0 out of 12
Pollen 9.20 out of 12
Air Quality Not available.
Flu Activity Not available.
METAR KVNC 032255Z AUTO 31005KT 10SM SCT050 BKN065 22/20 A3012 RMK AO2

More Conditions Fewer Conditions

Pressure 30.12 in
Visibility 10.0 miles
Clouds Scattered Clouds 5000 ft
Mostly Cloudy 6500 ft
Heat Index 79 °F
Dew Point 62 °F
Humidity 61%
Rainfall 0.61 in
Snow Depth Not available.
UV 0 out of 12
Pollen 9.20 out of 12
Air Quality Not available.
Flu Activity Not available.
METAR KVNC 032255Z AUTO 31005KT 10SM SCT050 BKN065 22/20 A3012 RMK AO2

More Conditions Fewer Conditions

10-Day Weather Forecast

Almanac

Astronomy

Mar. 03, 2015 Rise Set
Actual Time
Civil Twilight
Nautical Twilight
Astronomical Twilight
Moon
Length of Visible Light
Length of Day
Tomorrow will be .
, % of the Moon is Illuminated

Today's Extremes

State Highs State Lows

Community

WunderPhotos

Upload Photos

1,802,299 photos uploaded!

WunderBlogs® & News

Nearby

Air Quality

  Air Quality AQ Index Pollutant
Not available.

Snow Depth

Station Depth Elevation

Earthquake Activity

City Distance Mag. Time & Date
Minimum magnitude displayed is 2.5.

Coastal Water Temperatures

Place Temperature

Nearby Weather Stations